Time;durP1;ratioP1;P1;durP2;ratioP2;P2;SDS_P1;SDS_P2;PMS_P1;PMS_P2;Temp;Humidity;BMP_temperature;BMP_pressure;BME280_temperature;BME280_humidity;BME280_pressure;Samples;Min_cycle;Max_cycle;Signal;HPM_P1;HPM_P2
2021/05/16 00:02:10;;;;;;;;;;;;;;;20.46;37.94;98764.53;4402282;32;19962;-53
2021/05/16 00:04:36;;;;;;;;;;;;;;;20.48;38.66;98762.72;4403669;32;19958;-53
2021/05/16 00:07:02;;;;;;;;;;;;;;;20.52;38.13;98767.97;4418317;32;20319;-54
2021/05/16 00:09:29;;;;;;;;;;;;;;;20.46;38.07;98767.16;4416210;32;20444;-51
2021/05/16 00:11:55;;;;;;;;;;;;;;;20.48;38.59;98764.47;4404117;32;19969;-52
2021/05/16 00:14:21;;;;;;;;;;;;;;;20.54;38.24;98766.16;4406397;32;20002;-54
2021/05/16 00:16:47;;;;;;;;;;;;;;;20.51;38.37;98769.75;4417809;32;20636;-51
2021/05/16 00:19:12;;;;;;;;;;;;;;;20.50;38.17;98760.94;4417111;32;19958;-54
2021/05/16 00:21:38;;;;;;;;;;;;;;;20.45;38.29;98764.53;4405904;32;20387;-54
2021/05/16 00:24:04;;;;;;;;;;;;;;;20.45;38.32;98757.50;4402363;32;19951;-55
2021/05/16 00:26:30;;;;;;;;;;;;;;;20.43;38.34;98763.69;4413168;32;19999;-52
2021/05/16 00:28:56;;;;;;;;;;;;;;;20.38;38.42;98765.53;4417128;32;20302;-54
2021/05/16 00:31:22;;;;;;;;;;;;;;;20.40;38.33;98764.59;4408521;32;19946;-53
2021/05/16 00:33:48;;;;;;;;;;;;;;;20.45;38.06;98773.34;4402802;32;19986;-52
2021/05/16 00:36:13;;;;;;;;;;;;;;;20.50;38.11;98768.88;4410135;32;19958;-51
2021/05/16 00:38:40;;;;;;;;;;;;;;;20.45;37.98;98765.41;4417105;32;19966;-52
2021/05/16 00:41:05;;;;;;;;;;;;;;;20.41;38.35;98761.06;4411631;32;19958;-53
2021/05/16 00:43:31;;;;;;;;;;;;;;;20.47;38.52;98757.44;4402350;32;19999;-52
2021/05/16 00:45:57;;;;;;;;;;;;;;;20.42;38.68;98757.50;4407640;32;20016;-55
2021/05/16 00:48:23;;;;;;;;;;;;;;;20.44;38.49;98763.69;4417434;32;19953;-53
2021/05/16 00:50:49;;;;;;;;;;;;;;;20.48;38.35;98761.84;4413544;32;19950;-55
2021/05/16 00:53:15;;;;;;;;;;;;;;;20.42;38.29;98762.78;4402298;32;19954;-52
2021/05/16 00:55:41;;;;;;;;;;;;;;;20.40;38.51;98764.59;4404494;32;19993;-50
2021/05/16 00:58:07;;;;;;;;;;;;;;;20.46;38.10;98769.81;4416694;32;19946;-52
2021/05/16 01:00:35;;;;;;;;;;;;;;;20.43;38.42;98766.34;4416744;32;20343;-51
2021/05/16 01:03:00;;;;;;;;;;;;;;;20.46;38.44;98767.16;4401909;32;19962;-52
2021/05/16 01:05:26;;;;;;;;;;;;;;;20.45;38.54;98759.25;4401116;32;19973;-54
2021/05/16 01:07:52;;;;;;;;;;;;;;;20.43;38.26;98753.97;4417077;32;20045;-52
2021/05/16 01:10:18;;;;;;;;;;;;;;;20.47;38.10;98760.97;4416757;32;20290;-52
2021/05/16 01:12:46;;;;;;;;;;;;;;;20.43;38.38;98764.53;4403281;32;20010;-55
2021/05/16 01:15:13;;;;;;;;;;;;;;;20.43;38.14;98761.91;4402875;32;19965;-50
2021/05/16 01:17:38;;;;;;;;;;;;;;;20.41;38.48;98770.78;4417138;32;19969;-53
2021/05/16 01:20:04;;;;;;;;;;;;;;;20.39;38.21;98770.78;4415714;32;20349;-52
2021/05/16 01:22:30;;;;;;;;;;;;;;;20.40;38.63;98772.53;4406598;32;20330;-52
2021/05/16 01:24:56;;;;;;;;;;;;;;;20.42;38.03;98768.09;4402404;32;19951;-54
2021/05/16 01:27:22;;;;;;;;;;;;;;;20.40;38.16;98777.81;4411248;32;20031;-53
2021/05/16 01:29:48;;;;;;;;;;;;;;;20.40;38.61;98774.31;4416652;32;20557;-52
2021/05/16 01:32:14;;;;;;;;;;;;;;;20.37;38.43;98769.94;4408761;32;19950;-53
2021/05/16 01:34:40;;;;;;;;;;;;;;;20.39;38.04;98777.84;4401913;32;20005;-49
2021/05/16 01:37:06;;;;;;;;;;;;;;;20.38;38.54;98771.69;4408428;32;20392;-54
2021/05/16 01:39:32;;;;;;;;;;;;;;;20.35;38.23;98777.00;4416678;32;19954;-51
2021/05/16 01:41:58;;;;;;;;;;;;;;;20.44;38.23;98778.66;4411689;32;20443;-53
2021/05/16 01:44:24;;;;;;;;;;;;;;;20.44;38.24;98768.97;4401536;32;19969;-54
2021/05/16 01:46:50;;;;;;;;;;;;;;;20.42;38.32;98773.37;4405089;32;19958;-51
2021/05/16 01:49:16;;;;;;;;;;;;;;;20.38;38.38;98779.59;4415681;32;20361;-54
2021/05/16 01:51:42;;;;;;;;;;;;;;;20.40;38.28;98769.88;4417336;32;19954;-53
2021/05/16 01:54:08;;;;;;;;;;;;;;;20.32;38.48;98771.78;4416190;32;20323;-54
2021/05/16 01:56:34;;;;;;;;;;;;;;;20.33;38.63;98762.94;4415851;32;19977;-54
2021/05/16 01:59:00;;;;;;;;;;;;;;;20.32;38.81;98771.78;4401524;32;19965;-53
2021/05/16 02:01:26;;;;;;;;;;;;;;;20.34;38.58;98780.56;4400986;32;19958;-52
2021/05/16 02:03:52;;;;;;;;;;;;;;;20.34;38.50;98783.19;4416645;32;19958;-52
2021/05/16 02:06:18;;;;;;;;;;;;;;;20.41;38.32;98779.56;4416771;32;19983;-53
2021/05/16 02:08:44;;;;;;;;;;;;;;;20.37;38.46;98777.84;4401634;32;19961;-54
2021/05/16 02:11:10;;;;;;;;;;;;;;;20.34;38.22;98772.63;4401555;32;19986;-53
2021/05/16 02:13:36;;;;;;;;;;;;;;;20.34;38.27;98775.25;4413905;32;19958;-53
2021/05/16 02:16:02;;;;;;;;;;;;;;;20.33;38.34;98769.09;4417037;32;19958;-53
2021/05/16 02:18:28;;;;;;;;;;;;;;;20.32;38.83;98771.78;4414153;32;20473;-51
2021/05/16 02:20:54;;;;;;;;;;;;;;;20.30;38.58;98769.13;4416388;32;19965;-54
2021/05/16 02:23:19;;;;;;;;;;;;;;;20.22;38.51;98777.16;4407590;32;19951;-53
2021/05/16 02:25:45;;;;;;;;;;;;;;;20.30;38.49;98774.41;4404248;32;20303;-55
2021/05/16 02:28:11;;;;;;;;;;;;;;;20.30;38.62;98778.81;4411718;32;19950;-53
2021/05/16 02:30:37;;;;;;;;;;;;;;;20.29;38.52;98782.34;4419623;32;19954;-52
2021/05/16 02:33:04;;;;;;;;;;;;;;;20.28;38.58;98780.63;4411479;32;19988;-52
2021/05/16 02:35:30;;;;;;;;;;;;;;;20.29;38.62;98777.06;4404799;32;19943;-54
2021/05/16 02:37:56;;;;;;;;;;;;;;;20.28;38.67;98777.97;4409363;32;20366;-52
2021/05/16 02:40:22;;;;;;;;;;;;;;;20.25;38.61;98770.09;4418988;32;19950;-52
2021/05/16 02:42:48;;;;;;;;;;;;;;;20.26;38.81;98766.53;4414875;32;19989;-53
2021/05/16 02:45:14;;;;;;;;;;;;;;;20.27;38.39;98757.72;4404203;32;19950;-54
2021/05/16 02:47:40;;;;;;;;;;;;;;;20.27;38.52;98755.97;4407178;32;19950;-55
2021/05/16 02:50:05;;;;;;;;;;;;;;;20.31;38.37;98764.72;4419103;32;19954;-51
2021/05/16 02:52:31;;;;;;;;;;;;;;;20.34;38.17;98757.63;4417905;32;19998;-48
2021/05/16 02:54:57;;;;;;;;;;;;;;;20.36;38.20;98765.53;4404581;32;19961;-50
2021/05/16 02:57:23;;;;;;;;;;;;;;;20.34;38.20;98754.12;4409516;32;20357;-51
2021/05/16 02:59:49;;;;;;;;;;;;;;;20.33;38.57;98753.22;4418952;32;19942;-51
2021/05/16 03:02:15;;;;;;;;;;;;;;;20.33;38.28;98741.78;4418343;32;20315;-48
2021/05/16 03:04:41;;;;;;;;;;;;;;;20.35;38.44;98758.50;4405051;32;20338;-54
2021/05/16 03:07:07;;;;;;;;;;;;;;;20.28;38.70;98751.53;4404044;32;19986;-54
2021/05/16 03:09:34;;;;;;;;;;;;;;;20.30;38.76;98753.28;4416435;32;19954;-50
2021/05/16 03:12:00;;;;;;;;;;;;;;;20.27;38.63;98752.44;4418607;32;20393;-52
2021/05/16 03:14:26;;;;;;;;;;;;;;;20.26;38.81;98751.56;4407085;32;20002;-52
2021/05/16 03:16:52;;;;;;;;;;;;;;;20.29;38.86;98755.94;4404167;32;20353;-54
2021/05/16 03:19:18;;;;;;;;;;;;;;;20.26;38.58;98755.97;4411354;32;20022;-55
2021/05/16 03:21:44;;;;;;;;;;;;;;;20.25;38.60;98755.12;4419080;32;20025;-55
2021/05/16 03:24:10;;;;;;;;;;;;;;;20.26;38.51;98756.88;4418657;32;20319;-52
2021/05/16 03:26:36;;;;;;;;;;;;;;;20.21;39.00;98749.00;4419665;32;19974;-51
2021/05/16 03:29:04;;;;;;;;;;;;;;;20.26;38.64;98750.69;4417663;32;20378;-53
2021/05/16 03:31:30;;;;;;;;;;;;;;;20.27;38.47;98752.44;4418461;32;20321;-51
2021/05/16 03:33:56;;;;;;;;;;;;;;;20.26;38.57;98753.34;4412856;32;19954;-53
2021/05/16 03:36:21;;;;;;;;;;;;;;;20.23;38.68;98756.88;4402493;32;19985;-50
2021/05/16 03:38:48;;;;;;;;;;;;;;;20.18;38.63;98756.94;4407283;32;20000;-54
2021/05/16 03:41:13;;;;;;;;;;;;;;;20.21;38.78;98762.22;4418894;32;19965;-51
2021/05/16 03:43:39;;;;;;;;;;;;;;;20.26;38.72;98762.16;4415312;32;20373;-53
2021/05/16 03:46:05;;;;;;;;;;;;;;;20.26;38.66;98759.50;4400979;32;19988;-52
2021/05/16 03:48:31;;;;;;;;;;;;;;;20.14;38.77;98757.88;4405206;32;20285;-52
2021/05/16 03:50:57;;;;;;;;;;;;;;;20.19;38.71;98761.34;4418908;32;20016;-50
2021/05/16 03:53:23;;;;;;;;;;;;;;;20.14;38.97;98757.88;4417750;32;20033;-52
2021/05/16 03:55:49;;;;;;;;;;;;;;;20.24;38.58;98765.69;4403441;32;19947;-53
2021/05/16 03:58:15;;;;;;;;;;;;;;;20.25;38.63;98760.41;4405119;32;20011;-49
2021/05/16 04:00:41;;;;;;;;;;;;;;;20.19;38.83;98758.72;4418542;32;19965;-50
2021/05/16 04:03:06;;;;;;;;;;;;;;;20.22;38.56;98756.03;4417663;32;20347;-52
2021/05/16 04:05:32;;;;;;;;;;;;;;;20.19;38.87;98749.91;4405466;32;19950;-51
2021/05/16 04:07:58;;;;;;;;;;;;;;;20.18;38.82;98751.66;4402863;32;20017;-53
2021/05/16 04:10:24;;;;;;;;;;;;;;;20.19;38.61;98748.12;4414060;32;19949;-51
2021/05/16 04:12:50;;;;;;;;;;;;;;;20.26;38.82;98750.69;4418260;32;19947;-52
2021/05/16 04:15:16;;;;;;;;;;;;;;;20.24;38.81;98747.19;4407623;32;20342;-49
2021/05/16 04:17:42;;;;;;;;;;;;;;;20.24;38.82;98752.47;4403062;32;19966;-55
2021/05/16 04:20:08;;;;;;;;;;;;;;;20.27;38.59;98755.97;4411559;32;20016;-48
2021/05/16 04:22:33;;;;;;;;;;;;;;;20.27;38.49;98760.38;4418084;32;19965;-51
2021/05/16 04:24:59;;;;;;;;;;;;;;;20.26;38.96;98758.63;4411003;32;20377;-55
2021/05/16 04:27:25;;;;;;;;;;;;;;;20.17;39.11;98755.19;4402748;32;19951;-55
2021/05/16 04:29:51;;;;;;;;;;;;;;;20.21;38.71;98758.66;4408637;32;20259;-55
2021/05/16 04:32:17;;;;;;;;;;;;;;;20.24;38.61;98755.12;4402291;32;20338;-56
2021/05/16 04:34:43;;;;;;;;;;;;;;;20.18;38.94;98759.56;4410832;32;20342;-55
2021/05/16 04:37:09;;;;;;;;;;;;;;;20.22;38.68;98750.72;4415843;32;19945;-52
2021/05/16 04:39:35;;;;;;;;;;;;;;;20.21;38.66;98749.00;4412461;32;19990;-52
2021/05/16 04:42:01;;;;;;;;;;;;;;;20.23;38.95;98741.03;4418731;32;20010;-51
2021/05/16 04:44:27;;;;;;;;;;;;;;;20.27;38.74;98752.44;4417300;32;20342;-54
2021/05/16 04:46:53;;;;;;;;;;;;;;;20.20;39.09;98747.25;4417957;32;19979;-52
2021/05/16 04:49:18;;;;;;;;;;;;;;;20.21;38.67;98748.09;4423325;32;19964;-52
2021/05/16 04:51:44;;;;;;;;;;;;;;;20.24;38.61;98745.41;4403731;32;19938;-52
2021/05/16 04:54:10;;;;;;;;;;;;;;;20.24;38.89;98744.56;4412554;32;19958;-49
2021/05/16 04:56:36;;;;;;;;;;;;;;;20.26;39.02;98753.34;4432857;32;20319;-50
2021/05/16 04:59:02;;;;;;;;;;;;;;;20.27;38.99;98752.44;4432907;32;19977;-51
2021/05/16 05:01:28;;;;;;;;;;;;;;;20.24;38.90;98747.19;4429831;32;19981;-52
2021/05/16 05:03:54;;;;;;;;;;;;;;;20.27;38.85;98745.41;4424516;32;19934;-54
2021/05/16 05:06:20;;;;;;;;;;;;;;;20.19;38.71;98750.78;4424816;32;19958;-49
2021/05/16 05:08:45;;;;;;;;;;;;;;;20.19;39.15;98756.06;4424816;32;19964;-52
2021/05/16 05:11:11;;;;;;;;;;;;;;;20.21;38.77;98754.28;4424186;32;19942;-52
2021/05/16 05:13:37;;;;;;;;;;;;;;;20.23;39.06;98756.88;4425963;32;19961;-53
2021/05/16 05:16:03;;;;;;;;;;;;;;;20.27;38.74;98760.38;4424041;32;19991;-50
2021/05/16 05:18:29;;;;;;;;;;;;;;;20.27;38.78;98755.06;4419031;32;19946;-52
2021/05/16 05:20:55;;;;;;;;;;;;;;;20.28;38.94;98757.72;4425531;32;19993;-53
2021/05/16 05:23:21;;;;;;;;;;;;;;;20.27;38.71;98758.59;4424196;32;19984;-49
2021/05/16 05:25:47;;;;;;;;;;;;;;;20.21;39.11;98754.28;4426208;32;19970;-54
2021/05/16 05:28:13;;;;;;;;;;;;;;;20.21;39.05;98750.75;4424030;32;19964;-50
2021/05/16 05:30:39;;;;;;;;;;;;;;;20.22;38.96;98747.19;4425659;32;19942;-52
2021/05/16 05:33:05;;;;;;;;;;;;;;;20.22;38.82;98750.72;4430565;32;19962;-49
2021/05/16 05:35:31;;;;;;;;;;;;;;;20.18;39.14;98743.72;4430245;32;19973;-50
2021/05/16 05:37:57;;;;;;;;;;;;;;;20.21;39.16;98743.69;4416407;32;20000;-55
2021/05/16 05:40:23;;;;;;;;;;;;;;;20.19;39.26;98747.25;4419078;32;20309;-52
2021/05/16 05:42:49;;;;;;;;;;;;;;;20.25;38.76;98748.94;4431922;32;19953;-50
2021/05/16 05:45:15;;;;;;;;;;;;;;;20.23;39.32;98741.03;4432510;32;19938;-52
2021/05/16 05:47:41;;;;;;;;;;;;;;;20.26;38.85;98746.28;4417603;32;19955;-51
2021/05/16 05:50:07;;;;;;;;;;;;;;;20.27;39.27;98744.50;4416942;32;19959;-54
2021/05/16 05:52:33;;;;;;;;;;;;;;;20.14;39.40;98742.03;4429983;32;20331;-53
2021/05/16 05:54:59;;;;;;;;;;;;;;;20.22;39.28;98745.44;4425225;32;20014;-50
2021/05/16 05:57:25;;;;;;;;;;;;;;;20.20;39.23;98741.97;4424687;32;19990;-53
2021/05/16 05:59:50;;;;;;;;;;;;;;;20.21;39.36;98743.69;4422986;32;19958;-51
2021/05/16 06:02:16;;;;;;;;;;;;;;;20.22;39.04;98748.09;4425619;32;19953;-50
2021/05/16 06:04:42;;;;;;;;;;;;;;;20.24;39.39;98744.56;4424126;32;19994;-51
2021/05/16 06:07:08;;;;;;;;;;;;;;;20.20;39.47;98741.97;4422986;32;20068;-52
2021/05/16 06:09:36;;;;;;;;;;;;;;;20.21;39.26;98746.34;4413623;32;19995;-53
2021/05/16 06:12:04;;;;;;;;;;;;;;;20.20;39.43;98747.25;4414907;32;20330;-49
2021/05/16 06:14:30;;;;;;;;;;;;;;;20.19;39.46;98753.44;4417058;32;19961;-50
2021/05/16 06:16:56;;;;;;;;;;;;;;;20.23;39.45;98751.59;4423328;32;19950;-51
2021/05/16 06:19:22;;;;;;;;;;;;;;;20.22;39.53;98749.84;4423055;32;19988;-52
2021/05/16 06:21:48;;;;;;;;;;;;;;;20.28;39.51;98746.25;4424001;32;19993;-50
2021/05/16 06:24:14;;;;;;;;;;;;;;;20.27;39.43;98747.16;4424236;32;19989;-50
2021/05/16 06:26:41;;;;;;;;;;;;;;;20.27;39.42;98752.44;4423405;32;19990;-52
2021/05/16 06:29:08;;;;;;;;;;;;;;;20.29;39.31;98751.53;4424763;32;20023;-53
2021/05/16 06:31:33;;;;;;;;;;;;;;;20.27;39.18;98757.72;4424320;32;19942;-48
2021/05/16 06:33:59;;;;;;;;;;;;;;;20.34;39.07;98754.97;4424412;32;20444;-51
2021/05/16 06:36:26;;;;;;;;;;;;;;;20.36;39.03;98747.88;4425132;32;19954;-49
2021/05/16 06:38:52;;;;;;;;;;;;;;;20.33;39.33;98752.38;4420796;32;19991;-48
2021/05/16 06:41:18;;;;;;;;;;;;;;;20.35;39.02;98761.16;4423819;32;19985;-52
2021/05/16 06:43:44;;;;;;;;;;;;;;;20.36;39.03;98744.37;4426620;32;19954;-52
2021/05/16 06:46:10;;;;;;;;;;;;;;;20.32;39.16;98750.63;4424452;32;19985;-52
2021/05/16 06:48:35;;;;;;;;;;;;;;;20.29;39.23;98745.34;4425031;32;19934;-49
2021/05/16 06:51:03;;;;;;;;;;;;;;;20.31;39.25;98751.50;4432932;32;19979;-52
2021/05/16 06:53:29;;;;;;;;;;;;;;;20.31;39.19;98743.56;4418182;32;19958;-50
2021/05/16 06:55:54;;;;;;;;;;;;;;;20.38;39.04;98753.16;4417806;32;20240;-50
2021/05/16 06:58:20;;;;;;;;;;;;;;;20.33;39.06;98745.28;4429302;32;19949;-51
2021/05/16 07:00:46;;;;;;;;;;;;;;;20.39;39.08;98757.56;4432559;32;19949;-51
2021/05/16 07:03:12;;;;;;;;;;;;;;;20.36;39.14;98750.53;4419592;32;20280;-53
2021/05/16 07:05:38;;;;;;;;;;;;;;;20.42;39.00;98751.37;4417947;32;19990;-49
2021/05/16 07:08:04;;;;;;;;;;;;;;;20.44;39.08;98760.16;4427114;32;19957;-51
2021/05/16 07:10:30;;;;;;;;;;;;;;;20.41;39.02;98750.47;4433626;32;19949;-52
2021/05/16 07:12:56;;;;;;;;;;;;;;;20.42;39.03;98752.22;4426476;32;19945;-50
2021/05/16 07:15:22;;;;;;;;;;;;;;;20.42;39.08;98757.50;4430526;32;19941;-49
2021/05/16 07:17:48;;;;;;;;;;;;;;;20.43;39.06;98753.97;4427077;32;19997;-52
2021/05/16 07:20:14;;;;;;;;;;;;;;;20.44;39.06;98745.16;4419627;32;20309;-52
2021/05/16 07:22:40;;;;;;;;;;;;;;;20.45;39.07;98740.75;4425690;32;19954;-52
2021/05/16 07:25:06;;;;;;;;;;;;;;;20.48;39.06;98754.78;4435177;32;19964;-49
2021/05/16 07:27:32;;;;;;;;;;;;;;;20.48;39.05;98757.44;4416394;32;19950;-52
2021/05/16 07:29:58;;;;;;;;;;;;;;;20.49;39.10;98748.59;4421063;32;21372;-52
2021/05/16 07:32:24;;;;;;;;;;;;;;;20.44;39.25;98749.56;4426280;32;19994;-54
2021/05/16 07:34:50;;;;;;;;;;;;;;;20.44;39.28;98745.16;4426447;32;19969;-51
2021/05/16 07:37:15;;;;;;;;;;;;;;;20.46;39.23;98742.47;4426911;32;19954;-48
2021/05/16 07:39:41;;;;;;;;;;;;;;;20.46;39.24;98740.72;4425648;32;19946;-53
2021/05/16 07:42:07;;;;;;;;;;;;;;;20.47;39.25;98744.22;4427141;32;19986;-49
2021/05/16 07:44:33;;;;;;;;;;;;;;;20.46;39.23;98740.72;4425787;32;20313;-51
2021/05/16 07:46:59;;;;;;;;;;;;;;;20.48;39.26;98730.09;4425571;32;19984;-51
2021/05/16 07:49:25;;;;;;;;;;;;;;;20.48;39.34;98736.28;4425741;32;19988;-50
2021/05/16 07:51:51;;;;;;;;;;;;;;;20.48;39.38;98736.28;4428232;32;19953;-50
2021/05/16 07:54:17;;;;;;;;;;;;;;;20.46;39.42;98732.78;4426145;32;19950;-49
2021/05/16 07:56:42;;;;;;;;;;;;;;;20.48;39.36;98731.00;4428218;32;19942;-51
2021/05/16 07:59:08;;;;;;;;;;;;;;;20.47;39.42;98734.53;4421616;32;19976;-53
2021/05/16 08:01:34;;;;;;;;;;;;;;;20.49;39.38;98727.47;4419373;32;19984;-52
2021/05/16 08:04:00;;;;;;;;;;;;;;;20.51;39.35;98735.37;4429062;32;19980;-47
2021/05/16 08:06:26;;;;;;;;;;;;;;;20.52;39.38;98736.22;4434751;32;19976;-51
2021/05/16 08:08:52;;;;;;;;;;;;;;;20.53;39.41;98733.59;4425065;32;19950;-53
2021/05/16 08:11:18;;;;;;;;;;;;;;;20.52;39.44;98734.47;4418578;32;20000;-52
2021/05/16 08:13:44;;;;;;;;;;;;;;;20.50;39.51;98729.19;4426700;32;20340;-54
2021/05/16 08:16:10;;;;;;;;;;;;;;;20.49;39.57;98727.47;4419305;32;20331;-51
2021/05/16 08:18:35;;;;;;;;;;;;;;;20.48;39.62;98724.81;4428025;32;19942;-49
2021/05/16 08:21:01;;;;;;;;;;;;;;;20.46;39.69;98716.03;4418573;32;19973;-52
2021/05/16 08:23:28;;;;;;;;;;;;;;;20.47;39.70;98729.25;4422157;32;20004;-52
2021/05/16 08:25:54;;;;;;;;;;;;;;;20.44;39.76;98726.66;4427837;32;19981;-50
2021/05/16 08:28:20;;;;;;;;;;;;;;;20.46;39.80;98729.25;4427541;32;19942;-50
2021/05/16 08:30:46;;;;;;;;;;;;;;;20.44;39.84;98721.37;4434053;32;19965;-52
2021/05/16 08:33:12;;;;;;;;;;;;;;;20.43;39.91;98722.25;4431405;32;19960;-52
2021/05/16 08:35:38;;;;;;;;;;;;;;;20.43;39.91;98724.88;4418770;32;20002;-52
2021/05/16 08:38:04;;;;;;;;;;;;;;;20.44;39.90;98724.03;4418136;32;19990;-51
2021/05/16 08:40:30;;;;;;;;;;;;;;;20.44;39.92;98724.03;4429763;32;20358;-52
2021/05/16 08:42:57;;;;;;;;;;;;;;;20.42;39.99;98723.13;4425937;32;19958;-50
2021/05/16 08:45:23;;;;;;;;;;;;;;;20.44;39.97;98723.13;4431290;32;20045;-52
2021/05/16 08:47:49;;;;;;;;;;;;;;;20.44;39.97;98728.41;4433545;32;20353;-49
2021/05/16 08:50:15;;;;;;;;;;;;;;;20.45;39.99;98730.16;4420035;32;20402;-52
2021/05/16 08:52:41;;;;;;;;;;;;;;;20.45;39.98;98735.44;4418767;32;19938;-52
2021/05/16 08:55:07;;;;;;;;;;;;;;;20.47;39.96;98731.00;4429895;32;20001;-54
2021/05/16 08:57:33;;;;;;;;;;;;;;;20.49;39.93;98732.75;4434084;32;19934;-52
2021/05/16 08:59:59;;;;;;;;;;;;;;;20.49;39.93;98732.75;4422435;32;19977;-55
2021/05/16 09:02:24;;;;;;;;;;;;;;;20.49;39.96;98732.75;4417975;32;19958;-53
2021/05/16 09:04:51;;;;;;;;;;;;;;;20.50;39.97;98741.56;4427422;32;19950;-52
2021/05/16 09:07:17;;;;;;;;;;;;;;;20.52;39.96;98736.22;4432832;32;19961;-60
2021/05/16 09:09:42;;;;;;;;;;;;;;;20.36;41.01;98736.47;4425628;32;20006;-55
2021/05/16 09:12:08;;;;;;;;;;;;;;;19.44;43.16;98741.88;4416763;32;19955;-55
2021/05/16 09:14:34;;;;;;;;;;;;;;;19.26;44.37;98738.53;4424915;32;19946;-55
2021/05/16 09:17:00;;;;;;;;;;;;;;;19.18;45.15;98738.59;4433608;32;19942;-54
2021/05/16 09:19:26;;;;;;;;;;;;;;;18.83;45.97;98737.09;4427465;32;19962;-56
2021/05/16 09:21:52;;;;;;;;;;;;;;;18.60;46.34;98735.47;4418680;32;19960;-55
2021/05/16 09:24:18;;;;;;;;;;;;;;;18.90;46.02;98727.38;4420828;32;20000;-56
2021/05/16 09:26:44;;;;;;;;;;;;;;;18.76;45.82;98725.72;4433771;32;19945;-57
2021/05/16 09:29:09;;;;;;;;;;;;;;;18.85;44.91;98729.19;4429789;32;19983;-53
2021/05/16 09:31:35;;;;;;;;;;;;;;;18.78;45.00;98744.16;4417699;32;19945;-55
2021/05/16 09:34:01;;;;;;;;;;;;;;;18.84;44.69;98743.25;4418220;32;19946;-56
2021/05/16 09:36:27;;;;;;;;;;;;;;;18.77;44.88;98738.00;4433629;32;19960;-56
2021/05/16 09:38:53;;;;;;;;;;;;;;;18.92;44.76;98737.03;4432819;32;19957;-57
2021/05/16 09:41:19;;;;;;;;;;;;;;;18.85;44.97;98735.31;4417995;32;19979;-57
2021/05/16 09:43:45;;;;;;;;;;;;;;;18.81;44.98;98728.31;4417658;32;20349;-55
2021/05/16 09:46:11;;;;;;;;;;;;;;;18.91;44.77;98726.47;4430976;32;19938;-56
2021/05/16 09:48:38;;;;;;;;;;;;;;;18.71;44.68;98719.59;4432128;32;20617;-55
2021/05/16 09:51:03;;;;;;;;;;;;;;;18.72;44.87;98717.81;4431900;32;19985;-56
2021/05/16 09:53:29;;;;;;;;;;;;;;;18.55;44.63;98710.91;4433429;32;20056;-56
2021/05/16 09:55:55;;;;;;;;;;;;;;;18.47;44.80;98718.88;4432816;32;19957;-56
2021/05/16 09:58:21;;;;;;;;;;;;;;;18.39;44.36;98715.41;4421358;32;19934;-54
2021/05/16 10:00:47;;;;;;;;;;;;;;;18.50;45.20;98724.12;4426708;32;20313;-56
2021/05/16 10:03:13;;;;;;;;;;;;;;;18.72;43.63;98718.72;4431999;32;20005;-54
2021/05/16 10:05:39;;;;;;;;;;;;;;;18.61;44.49;98717.91;4424478;32;20000;-53
2021/05/16 10:08:06;;;;;;;;;;;;;;;18.49;44.41;98719.75;4417320;32;19965;-56
2021/05/16 10:10:33;;;;;;;;;;;;;;;18.30;43.79;98721.63;4423397;32;19972;-55
2021/05/16 10:12:59;;;;;;;;;;;;;;;18.42;44.15;98717.16;4433274;32;19956;-54
2021/05/16 10:15:25;;;;;;;;;;;;;;;18.40;43.80;98725.06;4427292;32;20335;-55
2021/05/16 10:17:51;;;;;;;;;;;;;;;18.52;43.66;98709.16;4423537;32;19949;-54
2021/05/16 10:20:17;;;;;;;;;;;;;;;18.76;42.54;98712.53;4427950;32;19950;-53
2021/05/16 10:22:42;;;;;;;;;;;;;;;18.58;43.07;98699.47;4417656;32;19947;-54
2021/05/16 10:25:08;;;;;;;;;;;;;;;18.66;43.63;98705.56;4419463;32;20067;-55
2021/05/16 10:27:37;;;;;;;;;;;;;;;18.93;42.99;98707.13;4433266;32;19964;-54
2021/05/16 10:30:03;;;;;;;;;;;;;;;19.00;42.92;98700.06;4429980;32;20009;-54
2021/05/16 10:32:34;;;;;;;;;;;;;;;18.72;43.95;98692.34;4417633;32;19984;-55
2021/05/16 10:35:00;;;;;;;;;;;;;;;18.66;44.75;98692.38;4418314;32;19971;-53
2021/05/16 10:37:26;;;;;;;;;;;;;;;18.49;45.21;98684.59;4432244;32;19958;-54
2021/05/16 10:39:52;;;;;;;;;;;;;;;18.85;44.37;98676.44;4432192;32;19942;-54
2021/05/16 10:42:17;;;;;;;;;;;;;;;18.63;44.55;98682.72;4417793;32;19997;-55
2021/05/16 10:44:43;;;;;;;;;;;;;;;18.49;44.76;98674.94;4418838;32;19961;-54
2021/05/16 10:47:09;;;;;;;;;;;;;;;18.69;44.84;98676.53;4432968;32;19987;-54
2021/05/16 10:49:36;;;;;;;;;;;;;;;18.48;45.19;98667.91;4435236;32;19953;-53
2021/05/16 10:52:01;;;;;;;;;;;;;;;18.44;44.48;98663.53;4431723;32;20010;-53
2021/05/16 10:54:28;;;;;;;;;;;;;;;18.67;44.62;98662.47;4433623;32;21522;-54
2021/05/16 10:56:54;;;;;;;;;;;;;;;18.95;43.23;98651.69;4425375;32;19957;-55
2021/05/16 10:59:20;;;;;;;;;;;;;;;18.63;42.66;98660.78;4419006;32;19984;-54
2021/05/16 11:01:45;;;;;;;;;;;;;;;18.90;42.73;98646.50;4429062;32;19986;-55
2021/05/16 11:04:13;;;;;;;;;;;;;;;19.18;42.67;98642.72;4435241;32;19969;-55
2021/05/16 11:06:39;;;;;;;;;;;;;;;18.99;42.48;98642.88;4427715;32;19946;-53
2021/05/16 11:09:05;;;;;;;;;;;;;;;19.05;42.59;98636.72;4418163;32;19973;-54
2021/05/16 11:11:33;;;;;;;;;;;;;;;19.10;42.30;98640.16;4426668;32;19969;-54
2021/05/16 11:13:59;;;;;;;;;;;;;;;19.20;42.29;98633.91;4434997;32;19964;-51
2021/05/16 11:16:25;;;;;;;;;;;;;;;19.07;41.92;98619.94;4429454;32;19968;-53
2021/05/16 11:18:51;;;;;;;;;;;;;;;19.37;42.00;98625.81;4419002;32;19951;-54
2021/05/16 11:21:17;;;;;;;;;;;;;;;19.31;41.94;98622.37;4423889;32;19968;-55
2021/05/16 11:23:47;;;;;;;;;;;;;;;19.37;41.38;98617.88;4434501;32;20334;-54
2021/05/16 11:26:13;;;;;;;;;;;;;;;19.03;41.77;98612.97;4433406;32;19977;-53
2021/05/16 11:28:39;;;;;;;;;;;;;;;18.65;42.17;98617.69;4434443;32;19983;-55
2021/05/16 11:31:05;;;;;;;;;;;;;;;18.97;42.00;98613.00;4432916;32;19993;-52
2021/05/16 11:33:30;;;;;;;;;;;;;;;19.15;41.67;98611.97;4419964;32;20293;-52
2021/05/16 11:35:56;;;;;;;;;;;;;;;19.01;42.11;98608.59;4420630;32;19949;-52
2021/05/16 11:38:22;;;;;;;;;;;;;;;19.24;41.78;98613.63;4434313;32;20106;-54
2021/05/16 11:40:48;;;;;;;;;;;;;;;19.39;41.55;98604.69;4434279;32;19985;-53
2021/05/16 11:43:14;;;;;;;;;;;;;;;19.31;41.94;98612.66;4420487;32;20334;-55
2021/05/16 11:45:40;;;;;;;;;;;;;;;19.41;41.49;98607.28;4419958;32;19961;-53
2021/05/16 11:48:06;;;;;;;;;;;;;;;19.21;41.51;98601.34;4431379;32;19966;-54
2021/05/16 11:50:32;;;;;;;;;;;;;;;19.35;41.70;98595.91;4434174;32;19960;-54
2021/05/16 11:52:58;;;;;;;;;;;;;;;19.64;41.20;98599.97;4423207;32;20338;-50
2021/05/16 11:55:24;;;;;;;;;;;;;;;19.25;41.51;98591.63;4417786;32;19954;-53
2021/05/16 11:57:50;;;;;;;;;;;;;;;19.62;40.92;98595.59;4424046;32;19958;-53
2021/05/16 12:00:16;;;;;;;;;;;;;;;20.05;40.24;98594.16;4418661;32;19948;-54
2021/05/16 12:02:42;;;;;;;;;;;;;;;20.25;39.81;98585.06;4427792;32;20027;-55
2021/05/16 12:05:08;;;;;;;;;;;;;;;20.37;39.49;98587.50;4424542;32;20047;-51
2021/05/16 12:07:34;;;;;;;;;;;;;;;20.35;39.70;98579.59;4428527;32;19954;-49
2021/05/16 12:10:02;;;;;;;;;;;;;;;20.52;39.46;98580.22;4424518;32;19954;-55
2021/05/16 12:12:28;;;;;;;;;;;;;;;20.57;39.54;98567.81;4424860;32;20001;-46
2021/05/16 12:14:56;;;;;;;;;;;;;;;20.56;39.50;98579.25;4424618;32;19982;-49
2021/05/16 12:17:21;;;;;;;;;;;;;;;20.61;39.39;98573.00;4424961;32;20004;-51
2021/05/16 12:19:47;;;;;;;;;;;;;;;20.58;39.56;98574.84;4426437;32;20149;-52
2021/05/16 12:22:13;;;;;;;;;;;;;;;20.60;39.55;98575.69;4425384;32;19954;-51
2021/05/16 12:24:44;;;;;;;;;;;;;;;20.71;39.32;98578.13;4431862;32;19962;-52
2021/05/16 12:27:10;;;;;;;;;;;;;;;20.82;39.21;98583.28;4430981;32;19983;-52
2021/05/16 12:29:37;;;;;;;;;;;;;;;20.79;39.27;98587.69;4434061;32;19950;-52
2021/05/16 12:32:03;;;;;;;;;;;;;;;20.72;39.30;98578.13;4433113;32;20378;-51
2021/05/16 12:34:30;;;;;;;;;;;;;;;20.70;39.35;98577.28;4425203;32;20263;-51
2021/05/16 12:36:58;;;;;;;;;;;;;;;20.65;39.51;98576.47;4427068;32;19953;-55
2021/05/16 12:39:24;;;;;;;;;;;;;;;20.78;39.28;98569.19;4423295;32;20252;-50
2021/05/16 12:41:49;;;;;;;;;;;;;;;20.93;38.96;98576.03;4422900;32;19953;-53